sensor_id;sensor_type;location;lat;lon;timestamp;pressure;altitude;pressure_sealevel;temperature;humidity
73671;BME280;61968;48.178;11.566;2024-03-02T00:00:36;94728.81;;;6.56;49.26
73671;BME280;61968;48.178;11.566;2024-03-02T00:03:03;94735.19;;;6.60;49.13
73671;BME280;61968;48.178;11.566;2024-03-02T00:05:31;94730.16;;;6.58;49.18
73671;BME280;61968;48.178;11.566;2024-03-02T00:07:59;94731.19;;;6.57;49.34
73671;BME280;61968;48.178;11.566;2024-03-02T00:10:26;94731.00;;;6.59;49.07
73671;BME280;61968;48.178;11.566;2024-03-02T00:12:55;94724.91;;;6.58;49.17
73671;BME280;61968;48.178;11.566;2024-03-02T00:15:41;94726.19;;;6.56;49.42
73671;BME280;61968;48.178;11.566;2024-03-02T00:18:10;94724.91;;;6.58;49.36
73671;BME280;61968;48.178;11.566;2024-03-02T00:20:38;94724.91;;;6.58;49.30
73671;BME280;61968;48.178;11.566;2024-03-02T00:23:06;94717.03;;;6.58;48.97
73671;BME280;61968;48.178;11.566;2024-03-02T00:25:38;94719.09;;;6.56;49.24
73671;BME280;61968;48.178;11.566;2024-03-02T00:28:11;94718.88;;;6.58;48.97
73671;BME280;61968;48.178;11.566;2024-03-02T00:30:52;94713.28;;;6.54;49.39
73671;BME280;61968;48.178;11.566;2024-03-02T00:33:21;94709.63;;;6.55;49.18
73671;BME280;61968;48.178;11.566;2024-03-02T00:35:49;94713.84;;;6.56;49.18
73671;BME280;61968;48.178;11.566;2024-03-02T00:38:17;94706.19;;;6.55;49.15
73671;BME280;61968;48.178;11.566;2024-03-02T00:40:44;94706.97;;;6.55;49.06
73671;BME280;61968;48.178;11.566;2024-03-02T00:43:42;94706.44;;;6.53;49.12
73671;BME280;61968;48.178;11.566;2024-03-02T00:46:11;94705.97;;;6.56;48.93
73671;BME280;61968;48.178;11.566;2024-03-02T00:48:38;94699.94;;;6.56;48.93
73671;BME280;61968;48.178;11.566;2024-03-02T00:51:05;94704.03;;;6.51;48.93
73671;BME280;61968;48.178;11.566;2024-03-02T00:53:33;94696.16;;;6.51;49.10
73671;BME280;61968;48.178;11.566;2024-03-02T00:55:59;94699.94;;;6.56;48.76
73671;BME280;61968;48.178;11.566;2024-03-02T00:58:27;94692.25;;;6.54;49.02
73671;BME280;61968;48.178;11.566;2024-03-02T01:00:53;94694.31;;;6.52;48.89
73671;BME280;61968;48.178;11.566;2024-03-02T01:03:20;94690.22;;;6.56;49.14
73671;BME280;61968;48.178;11.566;2024-03-02T01:05:47;94704.34;;;6.55;48.99
73671;BME280;61968;48.178;11.566;2024-03-02T01:08:13;94713.72;;;6.51;49.29
73671;BME280;61968;48.178;11.566;2024-03-02T01:10:41;94700.59;;;6.51;48.97
73671;BME280;61968;48.178;11.566;2024-03-02T01:13:08;94706.44;;;6.53;49.04
73671;BME280;61968;48.178;11.566;2024-03-02T01:15:35;94709.06;;;6.53;48.68
73671;BME280;61968;48.178;11.566;2024-03-02T01:18:01;94702.44;;;6.50;48.61
73671;BME280;61968;48.178;11.566;2024-03-02T01:20:28;94707.22;;;6.54;48.93
73671;BME280;61968;48.178;11.566;2024-03-02T01:22:54;94708.28;;;6.52;48.82
73671;BME280;61968;48.178;11.566;2024-03-02T01:25:21;94706.91;;;6.50;48.73
73671;BME280;61968;48.178;11.566;2024-03-02T01:27:48;94702.19;;;6.52;48.74
73671;BME280;61968;48.178;11.566;2024-03-02T01:30:15;94704.72;;;6.59;48.36
73671;BME280;61968;48.178;11.566;2024-03-02T01:32:42;94706.78;;;6.57;48.30
73671;BME280;61968;48.178;11.566;2024-03-02T01:35:08;94701.72;;;6.55;48.51
73671;BME280;61968;48.178;11.566;2024-03-02T01:37:34;94706.44;;;6.53;48.63
73671;BME280;61968;48.178;11.566;2024-03-02T01:40:01;94705.41;;;6.54;48.56
73671;BME280;61968;48.178;11.566;2024-03-02T01:42:34;94705.28;;;6.49;48.34
73671;BME280;61968;48.178;11.566;2024-03-02T01:45:02;94700.03;;;6.49;48.38
73671;BME280;61968;48.178;11.566;2024-03-02T01:47:28;94705.84;;;6.51;48.36
73671;BME280;61968;48.178;11.566;2024-03-02T01:49:55;94705.72;;;6.46;48.46
73671;BME280;61968;48.178;11.566;2024-03-02T01:52:21;94703.69;;;6.48;48.21
73671;BME280;61968;48.178;11.566;2024-03-02T01:54:48;94698.91;;;6.45;48.44
73671;BME280;61968;48.178;11.566;2024-03-02T01:57:14;94696.06;;;6.46;48.39
73671;BME280;61968;48.178;11.566;2024-03-02T01:59:40;94693.63;;;6.45;48.63
73671;BME280;61968;48.178;11.566;2024-03-02T02:02:08;94688.19;;;6.46;48.39
73671;BME280;61968;48.178;11.566;2024-03-02T02:04:35;94686.91;;;6.49;48.24
73671;BME280;61968;48.178;11.566;2024-03-02T02:07:01;94678.94;;;6.44;48.38
73671;BME280;61968;48.178;11.566;2024-03-02T02:09:28;94681.88;;;6.47;48.43
73671;BME280;61968;48.178;11.566;2024-03-02T02:11:54;94673.22;;;6.47;48.30
73671;BME280;61968;48.178;11.566;2024-03-02T02:14:21;94671.13;;;6.49;48.36
73671;BME280;61968;48.178;11.566;2024-03-02T02:16:47;94675.47;;;6.43;48.55
73671;BME280;61968;48.178;11.566;2024-03-02T02:19:15;94670.59;;;6.47;48.46
73671;BME280;61968;48.178;11.566;2024-03-02T02:21:43;94669.78;;;6.46;48.19
73671;BME280;61968;48.178;11.566;2024-03-02T02:24:10;94672.19;;;6.48;48.47
73671;BME280;61968;48.178;11.566;2024-03-02T02:26:38;94671.38;;;6.47;48.21
73671;BME280;61968;48.178;11.566;2024-03-02T02:29:05;94667.72;;;6.48;48.42
73671;BME280;61968;48.178;11.566;2024-03-02T02:31:37;94664.31;;;6.48;48.03
73671;BME280;61968;48.178;11.566;2024-03-02T02:34:04;94671.25;;;6.54;48.19
73671;BME280;61968;48.178;11.566;2024-03-02T02:36:30;94671.13;;;6.49;48.32
73671;BME280;61968;48.178;11.566;2024-03-02T02:39:00;94668.97;;;6.46;48.35
73671;BME280;61968;48.178;11.566;2024-03-02T02:41:28;94668.63;;;6.42;48.56
73671;BME280;61968;48.178;11.566;2024-03-02T02:43:55;94668.75;;;6.36;48.17
73671;BME280;61968;48.178;11.566;2024-03-02T02:46:21;94674.13;;;6.41;48.26
73671;BME280;61968;48.178;11.566;2024-03-02T02:48:47;94669.88;;;6.40;48.04
73671;BME280;61968;48.178;11.566;2024-03-02T02:51:14;94670.47;;;6.42;48.25
73671;BME280;61968;48.178;11.566;2024-03-02T02:53:41;94668.63;;;6.42;47.93
73671;BME280;61968;48.178;11.566;2024-03-02T02:56:09;94670.47;;;6.42;47.99
73671;BME280;61968;48.178;11.566;2024-03-02T02:58:35;94676.31;;;6.44;48.05
73671;BME280;61968;48.178;11.566;2024-03-02T03:01:02;94666.25;;;6.41;48.06
73671;BME280;61968;48.178;11.566;2024-03-02T03:03:29;94672.06;;;6.43;48.24
73671;BME280;61968;48.178;11.566;2024-03-02T03:05:55;94681.66;;;6.37;48.16
73671;BME280;61968;48.178;11.566;2024-03-02T03:08:21;94682.00;;;6.41;48.32
73671;BME280;61968;48.178;11.566;2024-03-02T03:10:49;94683.59;;;6.42;48.23
73671;BME280;61968;48.178;11.566;2024-03-02T03:13:17;94681.19;;;6.40;48.06
73671;BME280;61968;48.178;11.566;2024-03-02T03:15:43;94678.00;;;6.38;48.27
73671;BME280;61968;48.178;11.566;2024-03-02T03:18:10;94684.06;;;6.39;48.34
73671;BME280;61968;48.178;11.566;2024-03-02T03:20:36;94682.47;;;6.38;48.44
73671;BME280;61968;48.178;11.566;2024-03-02T03:23:03;94675.16;;;6.40;48.13
73671;BME280;61968;48.178;11.566;2024-03-02T03:25:30;94678.81;;;6.39;48.52
73671;BME280;61968;48.178;11.566;2024-03-02T03:27:56;94679.84;;;6.38;48.28
73671;BME280;61968;48.178;11.566;2024-03-02T03:30:24;94678.00;;;6.38;48.41
73671;BME280;61968;48.178;11.566;2024-03-02T03:32:50;94677.22;;;6.38;48.33
73671;BME280;61968;48.178;11.566;2024-03-02T03:35:17;94677.09;;;6.33;48.63
73671;BME280;61968;48.178;11.566;2024-03-02T03:37:43;94673.88;;;6.42;48.13
73671;BME280;61968;48.178;11.566;2024-03-02T03:40:10;94676.19;;;6.50;48.04
73671;BME280;61968;48.178;11.566;2024-03-02T03:42:37;94678.81;;;6.50;47.81
73671;BME280;61968;48.178;11.566;2024-03-02T03:45:04;94679.59;;;6.39;48.24
73671;BME280;61968;48.178;11.566;2024-03-02T03:47:33;94674.47;;;6.33;48.29
73671;BME280;61968;48.178;11.566;2024-03-02T03:49:59;94676.84;;;6.34;48.57
73671;BME280;61968;48.178;11.566;2024-03-02T03:52:26;94672.63;;;6.33;48.58
73671;BME280;61968;48.178;11.566;2024-03-02T03:54:52;94672.88;;;6.32;48.68
73671;BME280;61968;48.178;11.566;2024-03-02T03:57:18;94677.09;;;6.33;48.87
73671;BME280;61968;48.178;11.566;2024-03-02T03:59:45;94671.97;;;6.26;48.74
73671;BME280;61968;48.178;11.566;2024-03-02T04:02:12;94671.72;;;6.27;48.62
73671;BME280;61968;48.178;11.566;2024-03-02T04:04:40;94676.75;;;6.29;48.65
73671;BME280;61968;48.178;11.566;2024-03-02T04:07:07;94675.72;;;6.30;48.72
73671;BME280;61968;48.178;11.566;2024-03-02T04:09:33;94671.72;;;6.27;49.04
73671;BME280;61968;48.178;11.566;2024-03-02T04:11:59;94687.09;;;6.24;49.00
73671;BME280;61968;48.178;11.566;2024-03-02T04:14:26;94693.75;;;6.26;49.08
73671;BME280;61968;48.178;11.566;2024-03-02T04:16:52;94691.94;;;6.27;49.06
73671;BME280;61968;48.178;11.566;2024-03-02T04:19:19;94694.56;;;6.27;48.92
73671;BME280;61968;48.178;11.566;2024-03-02T04:21:46;94695.13;;;6.29;48.82
73671;BME280;61968;48.178;11.566;2024-03-02T04:24:13;94698.31;;;6.31;48.83
73671;BME280;61968;48.178;11.566;2024-03-02T04:26:39;94703.22;;;6.27;49.00
73671;BME280;61968;48.178;11.566;2024-03-02T04:29:06;94700.16;;;6.31;49.03
73671;BME280;61968;48.178;11.566;2024-03-02T04:31:33;94698.09;;;6.33;48.99
73671;BME280;61968;48.178;11.566;2024-03-02T04:33:59;94707.09;;;6.37;48.49
73671;BME280;61968;48.178;11.566;2024-03-02T04:36:25;94698.31;;;6.31;49.03
73671;BME280;61968;48.178;11.566;2024-03-02T04:38:53;94709.63;;;6.32;48.75
73671;BME280;61968;48.178;11.566;2024-03-02T04:41:20;94709.97;;;6.35;48.81
73671;BME280;61968;48.178;11.566;2024-03-02T04:43:46;94723.56;;;6.32;48.69
73671;BME280;61968;48.178;11.566;2024-03-02T04:46:12;94717.97;;;6.28;48.52
73671;BME280;61968;48.178;11.566;2024-03-02T04:48:39;94722.19;;;6.29;48.59
73671;BME280;61968;48.178;11.566;2024-03-02T04:51:05;94716.81;;;6.36;48.64
73671;BME280;61968;48.178;11.566;2024-03-02T04:53:31;94721.28;;;6.36;48.75
73671;BME280;61968;48.178;11.566;2024-03-02T04:55:58;94725.25;;;6.26;48.57
73671;BME280;61968;48.178;11.566;2024-03-02T04:58:45;94721.38;;;6.29;48.82
73671;BME280;61968;48.178;11.566;2024-03-02T05:01:11;94731.09;;;6.28;48.99
73671;BME280;61968;48.178;11.566;2024-03-02T05:03:38;94723.78;;;6.31;48.70
73671;BME280;61968;48.178;11.566;2024-03-02T05:06:04;94728.47;;;6.28;48.89
73671;BME280;61968;48.178;11.566;2024-03-02T05:08:33;94728.56;;;6.34;48.63
73671;BME280;61968;48.178;11.566;2024-03-02T05:11:02;94732.81;;;6.35;48.67
73671;BME280;61968;48.178;11.566;2024-03-02T05:13:42;94732.91;;;6.40;48.70
73671;BME280;61968;48.178;11.566;2024-03-02T05:16:08;94735.06;;;6.43;48.94
73671;BME280;61968;48.178;11.566;2024-03-02T05:18:37;94732.44;;;6.43;48.78
73671;BME280;61968;48.178;11.566;2024-03-02T05:21:03;94732.44;;;6.43;49.07
73671;BME280;61968;48.178;11.566;2024-03-02T05:23:30;94737.16;;;6.41;48.76
73671;BME280;61968;48.178;11.566;2024-03-02T05:25:57;94736.13;;;6.42;48.89
73671;BME280;61968;48.178;11.566;2024-03-02T05:28:24;94734.16;;;6.37;48.97
73671;BME280;61968;48.178;11.566;2024-03-02T05:30:51;94733.94;;;6.39;48.71
73671;BME280;61968;48.178;11.566;2024-03-02T05:33:17;94729.81;;;6.31;49.10
73671;BME280;61968;48.178;11.566;2024-03-02T05:35:44;94731.19;;;6.34;49.11
73671;BME280;61968;48.178;11.566;2024-03-02T05:38:10;94735.31;;;6.29;48.95
73671;BME280;61968;48.178;11.566;2024-03-02T05:40:37;94733.94;;;6.27;48.98
73671;BME280;61968;48.178;11.566;2024-03-02T05:43:03;94734.19;;;6.25;49.35
73671;BME280;61968;48.178;11.566;2024-03-02T05:45:31;94740.31;;;6.31;49.05
73671;BME280;61968;48.178;11.566;2024-03-02T05:47:57;94739.88;;;6.34;49.15
73671;BME280;61968;48.178;11.566;2024-03-02T05:50:24;94738.06;;;6.35;49.30
73671;BME280;61968;48.178;11.566;2024-03-02T05:52:50;94744.66;;;6.37;49.08
73671;BME280;61968;48.178;11.566;2024-03-02T05:55:17;94741.03;;;6.38;49.20
73671;BME280;61968;48.178;11.566;2024-03-02T05:57:43;94748.66;;;6.40;49.21
73671;BME280;61968;48.178;11.566;2024-03-02T06:00:24;94738.63;;;6.37;48.90
73671;BME280;61968;48.178;11.566;2024-03-02T06:02:51;94741.94;;;6.32;49.58
73671;BME280;61968;48.178;11.566;2024-03-02T06:05:18;94740.78;;;6.28;49.25
73671;BME280;61968;48.178;11.566;2024-03-02T06:07:44;94740.06;;;6.21;49.93
73671;BME280;61968;48.178;11.566;2024-03-02T06:10:11;94735.75;;;6.26;49.87
73671;BME280;61968;48.178;11.566;2024-03-02T06:12:37;94744.84;;;6.24;49.88
73671;BME280;61968;48.178;11.566;2024-03-02T06:15:04;94747.84;;;6.27;49.69
73671;BME280;61968;48.178;11.566;2024-03-02T06:17:31;94749.69;;;6.27;49.60
73671;BME280;61968;48.178;11.566;2024-03-02T06:19:58;94749.47;;;6.28;49.42
73671;BME280;61968;48.178;11.566;2024-03-02T06:22:25;94748.78;;;6.33;49.40
73671;BME280;61968;48.178;11.566;2024-03-02T06:24:51;94754.28;;;6.32;49.40
73671;BME280;61968;48.178;11.566;2024-03-02T06:27:17;94741.94;;;6.32;49.50
73671;BME280;61968;48.178;11.566;2024-03-02T06:29:44;94751.06;;;6.29;49.33
73671;BME280;61968;48.178;11.566;2024-03-02T06:32:10;94740.09;;;6.33;49.50
73671;BME280;61968;48.178;11.566;2024-03-02T06:34:36;94739.53;;;6.31;49.65
73671;BME280;61968;48.178;11.566;2024-03-02T06:37:04;94748.66;;;6.40;49.19
73671;BME280;61968;48.178;11.566;2024-03-02T06:39:31;94749.13;;;6.37;49.20
73671;BME280;61968;48.178;11.566;2024-03-02T06:41:59;94748.91;;;6.38;49.43
73671;BME280;61968;48.178;11.566;2024-03-02T06:44:25;94749.13;;;6.37;49.32
73671;BME280;61968;48.178;11.566;2024-03-02T06:50:13;94741.47;;;6.35;49.36
73671;BME280;61968;48.178;11.566;2024-03-02T06:52:41;94745.47;;;6.26;49.52
73671;BME280;61968;48.178;11.566;2024-03-02T06:55:08;94744.22;;;6.28;49.83
73671;BME280;61968;48.178;11.566;2024-03-02T06:57:35;94750.59;;;6.33;49.54
73671;BME280;61968;48.178;11.566;2024-03-02T07:00:01;94739.53;;;6.31;49.60
73671;BME280;61968;48.178;11.566;2024-03-02T07:02:30;94746.72;;;6.35;49.59
73671;BME280;61968;48.178;11.566;2024-03-02T07:04:57;94747.28;;;6.37;49.46
73671;BME280;61968;48.178;11.566;2024-03-02T07:07:24;94742.28;;;6.36;49.52
73671;BME280;61968;48.178;11.566;2024-03-02T07:09:52;94741.81;;;6.39;49.53
73671;BME280;61968;48.178;11.566;2024-03-02T07:12:18;94738.75;;;6.42;49.55
73671;BME280;61968;48.178;11.566;2024-03-02T07:14:44;94737.50;;;6.44;49.22
73671;BME280;61968;48.178;11.566;2024-03-02T07:17:28;94737.69;;;6.43;49.61
73671;BME280;61968;48.178;11.566;2024-03-02T07:19:55;94742.41;;;6.41;49.48
73671;BME280;61968;48.178;11.566;2024-03-02T07:22:22;94744.09;;;6.35;50.05
73671;BME280;61968;48.178;11.566;2024-03-02T07:24:48;94742.28;;;6.36;49.69
73671;BME280;61968;48.178;11.566;2024-03-02T07:27:17;94744.09;;;6.35;49.90
73671;BME280;61968;48.178;11.566;2024-03-02T07:29:44;94750.72;;;6.38;49.77
73671;BME280;61968;48.178;11.566;2024-03-02T07:32:10;94749.44;;;6.40;49.77
73671;BME280;61968;48.178;11.566;2024-03-02T07:34:37;94750.72;;;6.38;49.55
73671;BME280;61968;48.178;11.566;2024-03-02T07:37:04;94757.91;;;6.42;49.67
73671;BME280;61968;48.178;11.566;2024-03-02T07:39:31;94751.41;;;6.45;49.53
73671;BME280;61968;48.178;11.566;2024-03-02T07:41:57;94755.28;;;6.54;48.86
73671;BME280;61968;48.178;11.566;2024-03-02T07:44:25;94754.38;;;6.60;49.04
73671;BME280;61968;48.178;11.566;2024-03-02T07:46:52;94762.25;;;6.60;48.86
73671;BME280;61968;48.178;11.566;2024-03-02T07:49:18;94767.97;;;6.57;49.35
73671;BME280;61968;48.178;11.566;2024-03-02T07:51:45;94764.31;;;6.70;48.90
73671;BME280;61968;48.178;11.566;2024-03-02T07:54:11;94762.72;;;6.69;48.98
73671;BME280;61968;48.178;11.566;2024-03-02T07:56:38;94761.13;;;6.68;48.74
73671;BME280;61968;48.178;11.566;2024-03-02T07:59:04;94764.88;;;6.72;49.07
73671;BME280;61968;48.178;11.566;2024-03-02T08:01:34;94756.75;;;6.73;49.27
73671;BME280;61968;48.178;11.566;2024-03-02T08:04:01;94760.44;;;6.72;48.92
73671;BME280;61968;48.178;11.566;2024-03-02T08:06:29;94759.50;;;6.79;49.23
73671;BME280;61968;48.178;11.566;2024-03-02T08:08:56;94764.09;;;6.83;49.03
73671;BME280;61968;48.178;11.566;2024-03-02T08:11:23;94766.00;;;6.88;48.55
73671;BME280;61968;48.178;11.566;2024-03-02T08:13:50;94770.34;;;6.94;48.37
73671;BME280;61968;48.178;11.566;2024-03-02T08:16:17;94766.13;;;6.93;48.53
73671;BME280;61968;48.178;11.566;2024-03-02T08:18:46;94768.97;;;6.91;48.37
73671;BME280;61968;48.178;11.566;2024-03-02T08:21:13;94772.44;;;6.92;48.14
73671;BME280;61968;48.178;11.566;2024-03-02T08:23:40;94765.41;;;6.97;47.88
73671;BME280;61968;48.178;11.566;2024-03-02T08:26:07;94775.94;;;6.97;47.77
73671;BME280;61968;48.178;11.566;2024-03-02T08:28:34;94772.50;;;6.97;46.87
73671;BME280;61968;48.178;11.566;2024-03-02T08:31:02;94781.88;;;7.05;47.16
73671;BME280;61968;48.178;11.566;2024-03-02T08:33:29;94772.81;;;7.12;47.43
73671;BME280;61968;48.178;11.566;2024-03-02T08:35:56;94774.88;;;7.22;47.27
73671;BME280;61968;48.178;11.566;2024-03-02T08:38:23;94780.00;;;7.29;46.71
73671;BME280;61968;48.178;11.566;2024-03-02T08:40:50;94774.97;;;7.27;46.44
73671;BME280;61968;48.178;11.566;2024-03-02T08:43:16;94775.75;;;7.39;46.14
73671;BME280;61968;48.178;11.566;2024-03-02T08:45:43;94780.44;;;7.37;46.32
73671;BME280;61968;48.178;11.566;2024-03-02T08:48:12;94772.16;;;7.46;46.92
73671;BME280;61968;48.178;11.566;2024-03-02T08:50:39;94779.72;;;7.54;46.58
73671;BME280;61968;48.178;11.566;2024-03-02T08:53:06;94784.63;;;7.50;47.42
73671;BME280;61968;48.178;11.566;2024-03-02T08:55:33;94779.47;;;7.55;47.16
73671;BME280;61968;48.178;11.566;2024-03-02T08:57:59;94774.00;;;7.57;47.32
73671;BME280;61968;48.178;11.566;2024-03-02T09:00:26;94777.06;;;7.65;47.07
73671;BME280;61968;48.178;11.566;2024-03-02T09:02:52;94776.56;;;7.80;47.22
73671;BME280;61968;48.178;11.566;2024-03-02T09:05:19;94772.91;;;7.70;47.02
73671;BME280;61968;48.178;11.566;2024-03-02T09:07:45;94786.47;;;7.61;47.73
73671;BME280;61968;48.178;11.566;2024-03-02T09:10:13;94785.44;;;7.62;47.76
73671;BME280;61968;48.178;11.566;2024-03-02T09:12:40;94788.97;;;7.68;47.76
73671;BME280;61968;48.178;11.566;2024-03-02T09:15:09;94791.91;;;7.72;47.44
73671;BME280;61968;48.178;11.566;2024-03-02T09:17:36;94789.84;;;7.74;46.97
73671;BME280;61968;48.178;11.566;2024-03-02T09:20:02;94790.31;;;7.71;47.06
73671;BME280;61968;48.178;11.566;2024-03-02T09:22:29;94793.97;;;7.70;47.06
73671;BME280;61968;48.178;11.566;2024-03-02T09:24:57;94780.81;;;7.70;47.15
73671;BME280;61968;48.178;11.566;2024-03-02T09:27:28;94794.66;;;7.77;47.10
73671;BME280;61968;48.178;11.566;2024-03-02T09:29:54;94791.91;;;7.72;47.31
73671;BME280;61968;48.178;11.566;2024-03-02T09:32:21;94791.28;;;7.81;47.16
73671;BME280;61968;48.178;11.566;2024-03-02T09:34:48;94790.25;;;7.82;46.92
73671;BME280;61968;48.178;11.566;2024-03-02T09:37:15;94782.72;;;7.86;46.45
73671;BME280;61968;48.178;11.566;2024-03-02T09:39:43;94781.41;;;7.88;46.57
73671;BME280;61968;48.178;11.566;2024-03-02T09:42:10;94776.56;;;7.80;46.71
73671;BME280;61968;48.178;11.566;2024-03-02T09:44:39;94776.16;;;7.88;47.02
73671;BME280;61968;48.178;11.566;2024-03-02T09:47:06;94771.56;;;7.96;46.54
73671;BME280;61968;48.178;11.566;2024-03-02T09:49:33;94769.63;;;7.91;46.82
73671;BME280;61968;48.178;11.566;2024-03-02T09:52:01;94775.94;;;7.90;46.67
73671;BME280;61968;48.178;11.566;2024-03-02T09:54:29;94775.06;;;8.01;46.81
73671;BME280;61968;48.178;11.566;2024-03-02T09:56:55;94771.19;;;8.04;45.20
73671;BME280;61968;48.178;11.566;2024-03-02T09:59:22;94769.25;;;7.99;45.80
73671;BME280;61968;48.178;11.566;2024-03-02T10:02:00;94768.44;;;8.16;45.57
73671;BME280;61968;48.178;11.566;2024-03-02T10:04:28;94770.13;;;8.22;45.34
73671;BME280;61968;48.178;11.566;2024-03-02T10:07:10;94766.06;;;8.31;45.53
73671;BME280;61968;48.178;11.566;2024-03-02T10:09:37;94766.47;;;8.40;45.12
73671;BME280;61968;48.178;11.566;2024-03-02T10:12:05;94764.22;;;8.48;44.84
73671;BME280;61968;48.178;11.566;2024-03-02T10:14:32;94766.63;;;8.50;45.24
73671;BME280;61968;48.178;11.566;2024-03-02T10:17:03;94766.38;;;8.51;44.97
73671;BME280;61968;48.178;11.566;2024-03-02T10:19:34;94769.34;;;8.55;43.97
73671;BME280;61968;48.178;11.566;2024-03-02T10:22:02;94760.94;;;8.58;44.03
73671;BME280;61968;48.178;11.566;2024-03-02T10:24:35;94757.47;;;8.52;44.40
73671;BME280;61968;48.178;11.566;2024-03-02T10:27:07;94755.13;;;8.56;44.11
73671;BME280;61968;48.178;11.566;2024-03-02T10:29:36;94749.63;;;8.57;44.62
73671;BME280;61968;48.178;11.566;2024-03-02T10:32:04;94751.53;;;8.62;44.00
73671;BME280;61968;48.178;11.566;2024-03-02T10:34:32;94753.38;;;8.62;44.11
73671;BME280;61968;48.178;11.566;2024-03-02T10:36:59;94750.34;;;8.53;44.87
73671;BME280;61968;48.178;11.566;2024-03-02T10:39:26;94750.59;;;8.68;44.92
73671;BME280;61968;48.178;11.566;2024-03-02T10:41:53;94741.72;;;8.74;43.65
73671;BME280;61968;48.178;11.566;2024-03-02T10:44:22;94735.47;;;8.80;43.67
73671;BME280;61968;48.178;11.566;2024-03-02T10:46:50;94734.44;;;8.65;43.92
73671;BME280;61968;48.178;11.566;2024-03-02T10:49:18;94733.00;;;8.57;44.01
73671;BME280;61968;48.178;11.566;2024-03-02T10:51:45;94725.13;;;8.74;43.90
73671;BME280;61968;48.178;11.566;2024-03-02T10:54:12;94721.75;;;8.78;43.78
73671;BME280;61968;48.178;11.566;2024-03-02T10:56:39;94717.72;;;8.93;43.57
73671;BME280;61968;48.178;11.566;2024-03-02T10:59:14;94724.47;;;8.84;43.71
73671;BME280;61968;48.178;11.566;2024-03-02T11:01:43;94716.94;;;8.92;43.33
73671;BME280;61968;48.178;11.566;2024-03-02T11:04:13;94715.94;;;8.98;42.95
73671;BME280;61968;48.178;11.566;2024-03-02T11:06:48;94709.31;;;8.96;43.42
73671;BME280;61968;48.178;11.566;2024-03-02T11:09:16;94707.56;;;9.01;43.25
73671;BME280;61968;48.178;11.566;2024-03-02T11:11:48;94703.66;;;9.09;43.60
73671;BME280;61968;48.178;11.566;2024-03-02T11:14:17;94698.22;;;9.16;42.99
73671;BME280;61968;48.178;11.566;2024-03-02T11:16:47;94698.56;;;9.24;43.15
73671;BME280;61968;48.178;11.566;2024-03-02T11:19:15;94683.09;;;9.33;43.05
73671;BME280;61968;48.178;11.566;2024-03-02T11:21:44;94682.88;;;9.35;42.70
73671;BME280;61968;48.178;11.566;2024-03-02T11:24:31;94679.19;;;9.36;42.95
73671;BME280;61968;48.178;11.566;2024-03-02T11:26:59;94676.97;;;9.49;43.12
73671;BME280;61968;48.178;11.566;2024-03-02T11:29:44;94667.25;;;9.55;43.35
73671;BME280;61968;48.178;11.566;2024-03-02T11:32:20;94672.63;;;9.65;43.67
73671;BME280;61968;48.178;11.566;2024-03-02T11:34:49;94667.13;;;9.72;43.73
73671;BME280;61968;48.178;11.566;2024-03-02T11:37:18;94646.00;;;9.72;44.06
73671;BME280;61968;48.178;11.566;2024-03-02T11:39:48;94657.13;;;9.74;43.96
73671;BME280;61968;48.178;11.566;2024-03-02T11:42:15;94649.81;;;9.81;43.82
73671;BME280;61968;48.178;11.566;2024-03-02T11:44:44;94653.59;;;9.90;44.01
73671;BME280;61968;48.178;11.566;2024-03-02T11:47:13;94647.59;;;10.00;44.13
73671;BME280;61968;48.178;11.566;2024-03-02T11:49:44;94643.97;;;10.11;43.48
73671;BME280;61968;48.178;11.566;2024-03-02T11:52:12;94640.06;;;10.19;43.49
73671;BME280;61968;48.178;11.566;2024-03-02T11:54:42;94639.06;;;10.25;43.22
73671;BME280;61968;48.178;11.566;2024-03-02T11:57:13;94634.06;;;10.29;43.03
73671;BME280;61968;48.178;11.566;2024-03-02T11:59:40;94631.09;;;10.20;42.35
73671;BME280;61968;48.178;11.566;2024-03-02T12:02:06;94631.16;;;10.30;42.81
73671;BME280;61968;48.178;11.566;2024-03-02T12:04:39;94627.81;;;10.45;42.47
73671;BME280;61968;48.178;11.566;2024-03-02T12:07:06;94622.28;;;10.47;42.31
73671;BME280;61968;48.178;11.566;2024-03-02T12:09:32;94623.63;;;10.49;42.64
73671;BME280;61968;48.178;11.566;2024-03-02T12:12:05;94619.13;;;10.50;42.46
73671;BME280;61968;48.178;11.566;2024-03-02T12:14:32;94614.88;;;10.49;41.82
73671;BME280;61968;48.178;11.566;2024-03-02T12:16:59;94612.50;;;10.47;42.39
73671;BME280;61968;48.178;11.566;2024-03-02T12:19:26;94608.84;;;10.58;42.60
73671;BME280;61968;48.178;11.566;2024-03-02T12:21:55;94602.25;;;10.61;42.05
73671;BME280;61968;48.178;11.566;2024-03-02T12:24:22;94599.66;;;10.71;41.83
73671;BME280;61968;48.178;11.566;2024-03-02T12:26:49;94599.72;;;10.87;41.86
73671;BME280;61968;48.178;11.566;2024-03-02T12:29:18;94593.69;;;10.96;41.17
73671;BME280;61968;48.178;11.566;2024-03-02T12:31:45;94590.22;;;10.85;41.33
73671;BME280;61968;48.178;11.566;2024-03-02T12:34:12;94583.88;;;10.87;41.29
73671;BME280;61968;48.178;11.566;2024-03-02T12:36:39;94577.31;;;11.04;41.22
73671;BME280;61968;48.178;11.566;2024-03-02T12:39:07;94576.00;;;11.12;40.83
73671;BME280;61968;48.178;11.566;2024-03-02T12:41:35;94573.34;;;11.07;40.77
73671;BME280;61968;48.178;11.566;2024-03-02T12:44:02;94567.28;;;11.17;41.07
73671;BME280;61968;48.178;11.566;2024-03-02T12:46:30;94556.19;;;11.30;40.59
73671;BME280;61968;48.178;11.566;2024-03-02T12:49:07;94568.63;;;11.35;40.68
73671;BME280;61968;48.178;11.566;2024-03-02T12:51:35;94559.34;;;11.27;40.75
73671;BME280;61968;48.178;11.566;2024-03-02T12:54:02;94554.88;;;11.38;41.12
73671;BME280;61968;48.178;11.566;2024-03-02T12:56:30;94554.09;;;11.52;40.82
73671;BME280;61968;48.178;11.566;2024-03-02T12:58:58;94554.59;;;11.44;39.99
73671;BME280;61968;48.178;11.566;2024-03-02T13:01:25;94549.59;;;11.53;40.26
73671;BME280;61968;48.178;11.566;2024-03-02T13:03:54;94541.38;;;11.70;40.15
73671;BME280;61968;48.178;11.566;2024-03-02T13:06:21;94548.00;;;11.83;39.95